sensor_id;sensor_type;location;lat;lon;timestamp;P1;durP1;ratioP1;P2;durP2;ratioP2
2049;SDS011;8478;49.208;8.806;2023-04-01T00:00:24;2.70;;;2.50;;
2049;SDS011;8478;49.208;8.806;2023-04-01T00:02:50;2.57;;;2.40;;
2049;SDS011;8478;49.208;8.806;2023-04-01T00:05:16;3.30;;;2.90;;
2049;SDS011;8478;49.208;8.806;2023-04-01T00:07:42;5.37;;;3.10;;
2049;SDS011;8478;49.208;8.806;2023-04-01T00:10:09;3.40;;;2.90;;
2049;SDS011;8478;49.208;8.806;2023-04-01T00:12:36;3.43;;;3.10;;
2049;SDS011;8478;49.208;8.806;2023-04-01T00:15:04;3.30;;;3.10;;
2049;SDS011;8478;49.208;8.806;2023-04-01T00:17:31;2.77;;;2.57;;
2049;SDS011;8478;49.208;8.806;2023-04-01T00:19:57;3.63;;;3.10;;
2049;SDS011;8478;49.208;8.806;2023-04-01T00:22:23;3.57;;;2.97;;
2049;SDS011;8478;49.208;8.806;2023-04-01T00:24:50;2.90;;;2.70;;
2049;SDS011;8478;49.208;8.806;2023-04-01T00:27:16;4.37;;;3.00;;
2049;SDS011;8478;49.208;8.806;2023-04-01T00:29:42;3.63;;;3.07;;
2049;SDS011;8478;49.208;8.806;2023-04-01T00:32:08;5.30;;;3.10;;
2049;SDS011;8478;49.208;8.806;2023-04-01T00:34:34;4.20;;;3.13;;
2049;SDS011;8478;49.208;8.806;2023-04-01T00:37:00;3.53;;;3.23;;
2049;SDS011;8478;49.208;8.806;2023-04-01T00:39:28;2.90;;;2.70;;
2049;SDS011;8478;49.208;8.806;2023-04-01T00:41:54;3.20;;;2.90;;
2049;SDS011;8478;49.208;8.806;2023-04-01T00:44:22;3.17;;;2.60;;
2049;SDS011;8478;49.208;8.806;2023-04-01T00:46:54;4.10;;;2.90;;
2049;SDS011;8478;49.208;8.806;2023-04-01T00:49:21;2.87;;;2.67;;
2049;SDS011;8478;49.208;8.806;2023-04-01T00:51:51;4.13;;;3.07;;
2049;SDS011;8478;49.208;8.806;2023-04-01T00:54:19;3.20;;;2.90;;
2049;SDS011;8478;49.208;8.806;2023-04-01T00:56:48;3.60;;;2.83;;
2049;SDS011;8478;49.208;8.806;2023-04-01T00:59:26;4.20;;;3.10;;
2049;SDS011;8478;49.208;8.806;2023-04-01T01:02:14;3.50;;;2.90;;
2049;SDS011;8478;49.208;8.806;2023-04-01T01:04:40;3.10;;;2.90;;
2049;SDS011;8478;49.208;8.806;2023-04-01T01:07:21;3.50;;;3.10;;
2049;SDS011;8478;49.208;8.806;2023-04-01T01:18:05;2.90;;;2.70;;
2049;SDS011;8478;49.208;8.806;2023-04-01T01:20:48;4.07;;;3.50;;
2049;SDS011;8478;49.208;8.806;2023-04-01T01:29:11;3.00;;;2.80;;
2049;SDS011;8478;49.208;8.806;2023-04-01T01:36:45;4.30;;;2.40;;
2049;SDS011;8478;49.208;8.806;2023-04-01T01:39:17;3.73;;;3.37;;
2049;SDS011;8478;49.208;8.806;2023-04-01T01:41:45;2.70;;;2.50;;
2049;SDS011;8478;49.208;8.806;2023-04-01T01:44:14;4.67;;;2.60;;
2049;SDS011;8478;49.208;8.806;2023-04-01T01:46:42;2.97;;;2.67;;
2049;SDS011;8478;49.208;8.806;2023-04-01T01:49:10;2.87;;;2.67;;
2049;SDS011;8478;49.208;8.806;2023-04-01T01:51:37;3.77;;;2.80;;
2049;SDS011;8478;49.208;8.806;2023-04-01T01:54:04;3.30;;;3.00;;
2049;SDS011;8478;49.208;8.806;2023-04-01T01:56:30;5.37;;;2.90;;
2049;SDS011;8478;49.208;8.806;2023-04-01T01:59:02;3.20;;;3.00;;
2049;SDS011;8478;49.208;8.806;2023-04-01T02:01:33;3.27;;;2.90;;
2049;SDS011;8478;49.208;8.806;2023-04-01T02:04:02;7.23;;;3.00;;
2049;SDS011;8478;49.208;8.806;2023-04-01T02:06:30;4.43;;;2.83;;
2049;SDS011;8478;49.208;8.806;2023-04-01T02:09:00;4.10;;;3.03;;
2049;SDS011;8478;49.208;8.806;2023-04-01T02:11:36;3.43;;;2.80;;
2049;SDS011;8478;49.208;8.806;2023-04-01T02:16:54;6.87;;;3.73;;
2049;SDS011;8478;49.208;8.806;2023-04-01T02:19:27;2.90;;;2.70;;
2049;SDS011;8478;49.208;8.806;2023-04-01T02:22:04;3.10;;;2.80;;
2049;SDS011;8478;49.208;8.806;2023-04-01T02:24:33;5.53;;;3.30;;
2049;SDS011;8478;49.208;8.806;2023-04-01T02:27:01;5.60;;;3.23;;
2049;SDS011;8478;49.208;8.806;2023-04-01T02:29:27;4.73;;;3.10;;
2049;SDS011;8478;49.208;8.806;2023-04-01T02:31:53;2.67;;;2.47;;
2049;SDS011;8478;49.208;8.806;2023-04-01T02:34:20;3.47;;;3.17;;
2049;SDS011;8478;49.208;8.806;2023-04-01T02:36:48;3.33;;;2.80;;
2049;SDS011;8478;49.208;8.806;2023-04-01T02:39:16;3.80;;;3.00;;
2049;SDS011;8478;49.208;8.806;2023-04-01T02:41:42;2.90;;;2.70;;
2049;SDS011;8478;49.208;8.806;2023-04-01T02:44:10;2.97;;;2.50;;
2049;SDS011;8478;49.208;8.806;2023-04-01T02:46:36;3.67;;;3.03;;
2049;SDS011;8478;49.208;8.806;2023-04-01T02:49:03;3.33;;;2.80;;
2049;SDS011;8478;49.208;8.806;2023-04-01T02:51:29;3.03;;;2.73;;
2049;SDS011;8478;49.208;8.806;2023-04-01T02:53:55;3.37;;;2.90;;
2049;SDS011;8478;49.208;8.806;2023-04-01T02:56:20;2.87;;;2.50;;
2049;SDS011;8478;49.208;8.806;2023-04-01T02:58:46;2.80;;;2.60;;
2049;SDS011;8478;49.208;8.806;2023-04-01T03:01:12;3.00;;;2.80;;
2049;SDS011;8478;49.208;8.806;2023-04-01T03:03:38;2.63;;;2.37;;
2049;SDS011;8478;49.208;8.806;2023-04-01T03:06:08;2.70;;;2.50;;
2049;SDS011;8478;49.208;8.806;2023-04-01T03:08:35;2.43;;;2.30;;
2049;SDS011;8478;49.208;8.806;2023-04-01T03:11:00;3.33;;;2.80;;
2049;SDS011;8478;49.208;8.806;2023-04-01T03:13:26;2.90;;;2.70;;
2049;SDS011;8478;49.208;8.806;2023-04-01T03:15:52;2.70;;;2.47;;
2049;SDS011;8478;49.208;8.806;2023-04-01T03:18:18;3.73;;;2.73;;
2049;SDS011;8478;49.208;8.806;2023-04-01T03:20:44;2.80;;;2.60;;
2049;SDS011;8478;49.208;8.806;2023-04-01T03:23:10;2.63;;;2.43;;
2049;SDS011;8478;49.208;8.806;2023-04-01T03:25:36;2.50;;;2.30;;
2049;SDS011;8478;49.208;8.806;2023-04-01T03:28:02;2.67;;;2.47;;
2049;SDS011;8478;49.208;8.806;2023-04-01T03:30:28;2.60;;;2.40;;
2049;SDS011;8478;49.208;8.806;2023-04-01T03:32:57;2.30;;;2.20;;
2049;SDS011;8478;49.208;8.806;2023-04-01T03:35:24;2.47;;;2.37;;
2049;SDS011;8478;49.208;8.806;2023-04-01T03:37:50;2.60;;;2.40;;
2049;SDS011;8478;49.208;8.806;2023-04-01T03:40:16;2.57;;;2.37;;
2049;SDS011;8478;49.208;8.806;2023-04-01T03:42:42;2.87;;;2.60;;
2049;SDS011;8478;49.208;8.806;2023-04-01T03:45:08;2.30;;;2.20;;
2049;SDS011;8478;49.208;8.806;2023-04-01T03:47:34;2.93;;;2.07;;
2049;SDS011;8478;49.208;8.806;2023-04-01T03:50:00;2.57;;;2.30;;
2049;SDS011;8478;49.208;8.806;2023-04-01T03:52:26;2.70;;;2.50;;
2049;SDS011;8478;49.208;8.806;2023-04-01T03:54:52;2.80;;;2.40;;
2049;SDS011;8478;49.208;8.806;2023-04-01T03:57:18;3.07;;;2.10;;
2049;SDS011;8478;49.208;8.806;2023-04-01T03:59:43;4.00;;;2.30;;
2049;SDS011;8478;49.208;8.806;2023-04-01T04:02:09;2.70;;;2.30;;
2049;SDS011;8478;49.208;8.806;2023-04-01T04:04:35;3.63;;;2.40;;
2049;SDS011;8478;49.208;8.806;2023-04-01T04:07:00;2.60;;;2.43;;
2049;SDS011;8478;49.208;8.806;2023-04-01T04:09:26;2.90;;;2.27;;
2049;SDS011;8478;49.208;8.806;2023-04-01T04:11:52;2.73;;;2.53;;
2049;SDS011;8478;49.208;8.806;2023-04-01T04:14:18;2.40;;;2.20;;
2049;SDS011;8478;49.208;8.806;2023-04-01T04:16:43;2.50;;;2.37;;
2049;SDS011;8478;49.208;8.806;2023-04-01T04:19:09;3.37;;;2.67;;
2049;SDS011;8478;49.208;8.806;2023-04-01T04:21:35;3.07;;;2.80;;
2049;SDS011;8478;49.208;8.806;2023-04-01T04:24:01;2.57;;;2.37;;
2049;SDS011;8478;49.208;8.806;2023-04-01T04:26:27;2.63;;;2.43;;
2049;SDS011;8478;49.208;8.806;2023-04-01T04:28:53;2.70;;;2.50;;
2049;SDS011;8478;49.208;8.806;2023-04-01T04:31:20;2.60;;;2.40;;
2049;SDS011;8478;49.208;8.806;2023-04-01T04:33:47;3.93;;;2.20;;
2049;SDS011;8478;49.208;8.806;2023-04-01T04:36:13;2.60;;;2.40;;
2049;SDS011;8478;49.208;8.806;2023-04-01T04:38:39;2.60;;;2.40;;
2049;SDS011;8478;49.208;8.806;2023-04-01T04:41:11;2.87;;;2.67;;
2049;SDS011;8478;49.208;8.806;2023-04-01T04:43:39;2.90;;;2.63;;
2049;SDS011;8478;49.208;8.806;2023-04-01T04:46:09;2.90;;;2.70;;
2049;SDS011;8478;49.208;8.806;2023-04-01T04:48:35;6.30;;;3.40;;
2049;SDS011;8478;49.208;8.806;2023-04-01T04:51:02;2.50;;;2.40;;
2049;SDS011;8478;49.208;8.806;2023-04-01T04:53:28;2.80;;;2.30;;
2049;SDS011;8478;49.208;8.806;2023-04-01T04:55:55;4.13;;;2.50;;
2049;SDS011;8478;49.208;8.806;2023-04-01T04:58:21;2.50;;;2.30;;
2049;SDS011;8478;49.208;8.806;2023-04-01T05:00:47;3.20;;;2.40;;
2049;SDS011;8478;49.208;8.806;2023-04-01T05:03:13;3.00;;;2.70;;
2049;SDS011;8478;49.208;8.806;2023-04-01T05:05:39;3.40;;;2.80;;
2049;SDS011;8478;49.208;8.806;2023-04-01T05:08:12;2.77;;;2.40;;
2049;SDS011;8478;49.208;8.806;2023-04-01T05:10:38;4.40;;;3.00;;
2049;SDS011;8478;49.208;8.806;2023-04-01T05:13:03;3.80;;;2.70;;
2049;SDS011;8478;49.208;8.806;2023-04-01T05:15:29;2.70;;;2.50;;
2049;SDS011;8478;49.208;8.806;2023-04-01T05:17:55;3.50;;;2.93;;
2049;SDS011;8478;49.208;8.806;2023-04-01T05:20:20;3.47;;;2.67;;
2049;SDS011;8478;49.208;8.806;2023-04-01T05:22:46;3.03;;;2.83;;
2049;SDS011;8478;49.208;8.806;2023-04-01T05:25:12;2.97;;;2.77;;
2049;SDS011;8478;49.208;8.806;2023-04-01T05:27:37;2.37;;;2.27;;
2049;SDS011;8478;49.208;8.806;2023-04-01T05:30:03;2.90;;;2.70;;
2049;SDS011;8478;49.208;8.806;2023-04-01T05:32:30;4.20;;;2.43;;
2049;SDS011;8478;49.208;8.806;2023-04-01T05:34:56;2.50;;;2.30;;
2049;SDS011;8478;49.208;8.806;2023-04-01T05:37:22;3.23;;;2.93;;
2049;SDS011;8478;49.208;8.806;2023-04-01T05:39:48;6.23;;;3.27;;
2049;SDS011;8478;49.208;8.806;2023-04-01T05:42:13;2.97;;;2.63;;
2049;SDS011;8478;49.208;8.806;2023-04-01T05:44:40;2.70;;;2.50;;
2049;SDS011;8478;49.208;8.806;2023-04-01T05:47:06;3.27;;;2.80;;
2049;SDS011;8478;49.208;8.806;2023-04-01T05:49:32;3.10;;;2.87;;
2049;SDS011;8478;49.208;8.806;2023-04-01T05:51:58;3.27;;;2.97;;
2049;SDS011;8478;49.208;8.806;2023-04-01T05:54:24;3.17;;;2.90;;
2049;SDS011;8478;49.208;8.806;2023-04-01T05:56:50;2.93;;;2.67;;
2049;SDS011;8478;49.208;8.806;2023-04-01T05:59:16;3.50;;;3.00;;
2049;SDS011;8478;49.208;8.806;2023-04-01T06:01:41;2.70;;;2.50;;
2049;SDS011;8478;49.208;8.806;2023-04-01T06:04:10;2.83;;;2.40;;
2049;SDS011;8478;49.208;8.806;2023-04-01T06:06:39;3.30;;;2.50;;
2049;SDS011;8478;49.208;8.806;2023-04-01T06:09:16;2.93;;;2.73;;
2049;SDS011;8478;49.208;8.806;2023-04-01T06:11:46;3.10;;;2.90;;
2049;SDS011;8478;49.208;8.806;2023-04-01T06:25:40;2.70;;;2.60;;
2049;SDS011;8478;49.208;8.806;2023-04-01T06:30:51;2.40;;;2.30;;
2049;SDS011;8478;49.208;8.806;2023-04-01T06:46:50;3.80;;;2.83;;
2049;SDS011;8478;49.208;8.806;2023-04-01T06:52:32;2.70;;;2.50;;
2049;SDS011;8478;49.208;8.806;2023-04-01T06:55:09;2.57;;;2.37;;
2049;SDS011;8478;49.208;8.806;2023-04-01T06:57:47;2.30;;;2.20;;
2049;SDS011;8478;49.208;8.806;2023-04-01T07:00:22;3.10;;;2.47;;
2049;SDS011;8478;49.208;8.806;2023-04-01T07:05:41;3.03;;;2.60;;
2049;SDS011;8478;49.208;8.806;2023-04-01T07:08:11;2.70;;;2.50;;
2049;SDS011;8478;49.208;8.806;2023-04-01T07:13:27;2.70;;;2.50;;
2049;SDS011;8478;49.208;8.806;2023-04-01T07:15:58;2.53;;;2.40;;
2049;SDS011;8478;49.208;8.806;2023-04-01T07:18:52;3.10;;;2.80;;
2049;SDS011;8478;49.208;8.806;2023-04-01T07:24:23;3.03;;;2.57;;
2049;SDS011;8478;49.208;8.806;2023-04-01T07:26:55;2.70;;;2.50;;
2049;SDS011;8478;49.208;8.806;2023-04-01T07:29:21;2.70;;;2.50;;
2049;SDS011;8478;49.208;8.806;2023-04-01T07:37:37;2.63;;;2.40;;
2049;SDS011;8478;49.208;8.806;2023-04-01T08:01:55;2.80;;;2.40;;
2049;SDS011;8478;49.208;8.806;2023-04-01T08:04:32;2.30;;;2.20;;
2049;SDS011;8478;49.208;8.806;2023-04-01T08:07:15;2.93;;;2.73;;
2049;SDS011;8478;49.208;8.806;2023-04-01T08:15:33;4.03;;;2.53;;
2049;SDS011;8478;49.208;8.806;2023-04-01T08:18:21;2.70;;;2.30;;
2049;SDS011;8478;49.208;8.806;2023-04-01T08:20:59;2.63;;;2.43;;
2049;SDS011;8478;49.208;8.806;2023-04-01T08:23:28;2.60;;;2.50;;
2049;SDS011;8478;49.208;8.806;2023-04-01T08:26:00;2.53;;;2.40;;
2049;SDS011;8478;49.208;8.806;2023-04-01T08:28:32;2.60;;;2.40;;
2049;SDS011;8478;49.208;8.806;2023-04-01T08:31:12;2.60;;;2.40;;
2049;SDS011;8478;49.208;8.806;2023-04-01T08:33:55;2.20;;;2.10;;
2049;SDS011;8478;49.208;8.806;2023-04-01T08:38:54;2.57;;;2.40;;
2049;SDS011;8478;49.208;8.806;2023-04-01T08:49:55;2.23;;;2.10;;
2049;SDS011;8478;49.208;8.806;2023-04-01T08:52:36;2.30;;;2.10;;
2049;SDS011;8478;49.208;8.806;2023-04-01T08:58:06;2.60;;;2.40;;
2049;SDS011;8478;49.208;8.806;2023-04-01T09:00:56;2.20;;;2.10;;
2049;SDS011;8478;49.208;8.806;2023-04-01T09:06:09;2.70;;;2.37;;
2049;SDS011;8478;49.208;8.806;2023-04-01T09:11:16;2.47;;;2.27;;
2049;SDS011;8478;49.208;8.806;2023-04-01T09:44:31;2.57;;;2.37;;
2049;SDS011;8478;49.208;8.806;2023-04-01T09:47:19;2.53;;;2.33;;
2049;SDS011;8478;49.208;8.806;2023-04-01T10:03:43;2.37;;;2.27;;
2049;SDS011;8478;49.208;8.806;2023-04-01T10:29:10;2.73;;;2.20;;
2049;SDS011;8478;49.208;8.806;2023-04-01T11:12:41;2.30;;;2.20;;
2049;SDS011;8478;49.208;8.806;2023-04-01T11:18:08;2.30;;;2.10;;
2049;SDS011;8478;49.208;8.806;2023-04-01T11:21:07;2.73;;;2.53;;
2049;SDS011;8478;49.208;8.806;2023-04-01T11:27:08;2.43;;;2.23;;
2049;SDS011;8478;49.208;8.806;2023-04-01T11:32:44;2.43;;;2.27;;
2049;SDS011;8478;49.208;8.806;2023-04-01T11:35:22;2.23;;;2.13;;
2049;SDS011;8478;49.208;8.806;2023-04-01T11:38:19;2.33;;;2.23;;
2049;SDS011;8478;49.208;8.806;2023-04-01T11:41:15;2.80;;;2.53;;
2049;SDS011;8478;49.208;8.806;2023-04-01T11:55:24;2.30;;;2.20;;
2049;SDS011;8478;49.208;8.806;2023-04-01T12:00:47;2.20;;;2.10;;
2049;SDS011;8478;49.208;8.806;2023-04-01T12:12:00;2.30;;;2.20;;
2049;SDS011;8478;49.208;8.806;2023-04-01T12:14:36;2.20;;;2.10;;
2049;SDS011;8478;49.208;8.806;2023-04-01T12:19:47;2.40;;;2.20;;
2049;SDS011;8478;49.208;8.806;2023-04-01T12:22:24;2.17;;;2.03;;
2049;SDS011;8478;49.208;8.806;2023-04-01T12:39:06;2.33;;;2.13;;
2049;SDS011;8478;49.208;8.806;2023-04-01T12:42:07;2.73;;;2.60;;
2049;SDS011;8478;49.208;8.806;2023-04-01T12:53:42;3.50;;;2.60;;
2049;SDS011;8478;49.208;8.806;2023-04-01T12:56:39;2.53;;;2.40;;
2049;SDS011;8478;49.208;8.806;2023-04-01T13:04:44;2.37;;;2.27;;
2049;SDS011;8478;49.208;8.806;2023-04-01T13:10:02;2.33;;;2.17;;
2049;SDS011;8478;49.208;8.806;2023-04-01T13:12:58;2.90;;;2.70;;
2049;SDS011;8478;49.208;8.806;2023-04-01T13:15:30;2.30;;;2.20;;
2049;SDS011;8478;49.208;8.806;2023-04-01T13:21:02;2.30;;;2.20;;
2049;SDS011;8478;49.208;8.806;2023-04-01T13:26:34;2.40;;;2.30;;
2049;SDS011;8478;49.208;8.806;2023-04-01T13:29:19;2.40;;;2.30;;
2049;SDS011;8478;49.208;8.806;2023-04-01T13:32:13;2.20;;;2.10;;
2049;SDS011;8478;49.208;8.806;2023-04-01T13:34:47;2.10;;;2.00;;
2049;SDS011;8478;49.208;8.806;2023-04-01T13:43:25;2.90;;;2.20;;
2049;SDS011;8478;49.208;8.806;2023-04-01T13:51:13;2.23;;;2.13;;
2049;SDS011;8478;49.208;8.806;2023-04-01T13:54:08;2.20;;;2.10;;
2049;SDS011;8478;49.208;8.806;2023-04-01T14:04:29;2.40;;;2.30;;
2049;SDS011;8478;49.208;8.806;2023-04-01T14:12:39;2.70;;;2.50;;
2049;SDS011;8478;49.208;8.806;2023-04-01T14:23:37;2.20;;;2.10;;
2049;SDS011;8478;49.208;8.806;2023-04-01T14:29:11;2.30;;;2.20;;
2049;SDS011;8478;49.208;8.806;2023-04-01T14:37:07;2.13;;;2.03;;
2049;SDS011;8478;49.208;8.806;2023-04-01T14:53:59;2.20;;;2.10;;
2049;SDS011;8478;49.208;8.806;2023-04-01T14:57:01;2.10;;;2.00;;
2049;SDS011;8478;49.208;8.806;2023-04-01T14:59:40;2.40;;;2.23;;
2049;SDS011;8478;49.208;8.806;2023-04-01T15:02:50;2.40;;;2.30;;
2049;SDS011;8478;49.208;8.806;2023-04-01T15:08:12;1.90;;;1.80;;
2049;SDS011;8478;49.208;8.806;2023-04-01T15:10:44;3.13;;;2.30;;
2049;SDS011;8478;49.208;8.806;2023-04-01T15:30:29;3.50;;;2.60;;
2049;SDS011;8478;49.208;8.806;2023-04-01T15:41:40;3.50;;;2.73;;
2049;SDS011;8478;49.208;8.806;2023-04-01T15:44:46;2.60;;;2.50;;
2049;SDS011;8478;49.208;8.806;2023-04-01T15:47:32;3.23;;;2.93;;
2049;SDS011;8478;49.208;8.806;2023-04-01T15:52:56;2.60;;;2.40;;
2049;SDS011;8478;49.208;8.806;2023-04-01T15:55:48;2.90;;;2.70;;
2049;SDS011;8478;49.208;8.806;2023-04-01T16:03:44;2.90;;;2.70;;
2049;SDS011;8478;49.208;8.806;2023-04-01T16:15:09;2.70;;;2.50;;
2049;SDS011;8478;49.208;8.806;2023-04-01T16:20:44;3.43;;;3.20;;
2049;SDS011;8478;49.208;8.806;2023-04-01T16:23:39;3.50;;;3.20;;
2049;SDS011;8478;49.208;8.806;2023-04-01T16:28:40;3.30;;;3.10;;
2049;SDS011;8478;49.208;8.806;2023-04-01T16:31:14;2.77;;;2.57;;
2049;SDS011;8478;49.208;8.806;2023-04-01T16:36:41;3.30;;;3.00;;
2049;SDS011;8478;49.208;8.806;2023-04-01T16:47:40;2.80;;;2.60;;
2049;SDS011;8478;49.208;8.806;2023-04-01T16:52:59;2.97;;;2.57;;
2049;SDS011;8478;49.208;8.806;2023-04-01T17:01:43;2.93;;;2.80;;
2049;SDS011;8478;49.208;8.806;2023-04-01T17:10:25;2.70;;;2.50;;
2049;SDS011;8478;49.208;8.806;2023-04-01T17:24:29;2.90;;;2.77;;
2049;SDS011;8478;49.208;8.806;2023-04-01T17:30:22;2.87;;;2.73;;
2049;SDS011;8478;49.208;8.806;2023-04-01T17:50:44;4.00;;;3.70;;
2049;SDS011;8478;49.208;8.806;2023-04-01T17:56:13;4.73;;;3.90;;
2049;SDS011;8478;49.208;8.806;2023-04-01T18:17:51;3.20;;;3.00;;
2049;SDS011;8478;49.208;8.806;2023-04-01T18:20:24;4.30;;;3.40;;
2049;SDS011;8478;49.208;8.806;2023-04-01T18:26:24;3.30;;;3.10;;
2049;SDS011;8478;49.208;8.806;2023-04-01T18:28:57;3.90;;;3.60;;
2049;SDS011;8478;49.208;8.806;2023-04-01T18:37:59;3.27;;;2.93;;
2049;SDS011;8478;49.208;8.806;2023-04-01T18:40:37;3.17;;;2.97;;
2049;SDS011;8478;49.208;8.806;2023-04-01T18:46:16;3.60;;;3.40;;
2049;SDS011;8478;49.208;8.806;2023-04-01T18:48:57;3.27;;;3.07;;
2049;SDS011;8478;49.208;8.806;2023-04-01T18:54:05;4.30;;;4.00;;
2049;SDS011;8478;49.208;8.806;2023-04-01T18:56:44;3.50;;;3.20;;
2049;SDS011;8478;49.208;8.806;2023-04-01T19:04:39;3.37;;;3.17;;
2049;SDS011;8478;49.208;8.806;2023-04-01T19:12:56;3.93;;;3.43;;
2049;SDS011;8478;49.208;8.806;2023-04-01T19:16:04;4.37;;;4.07;;
2049;SDS011;8478;49.208;8.806;2023-04-01T19:29:36;3.80;;;3.50;;
2049;SDS011;8478;49.208;8.806;2023-04-01T19:32:46;3.47;;;3.17;;
2049;SDS011;8478;49.208;8.806;2023-04-01T19:37:56;4.10;;;3.20;;
2049;SDS011;8478;49.208;8.806;2023-04-01T19:46:29;3.00;;;2.80;;
2049;SDS011;8478;49.208;8.806;2023-04-01T19:55:21;5.20;;;4.47;;
2049;SDS011;8478;49.208;8.806;2023-04-01T19:58:16;4.80;;;4.40;;
2049;SDS011;8478;49.208;8.806;2023-04-01T20:01:03;5.50;;;4.37;;
2049;SDS011;8478;49.208;8.806;2023-04-01T20:08:49;4.30;;;3.90;;
2049;SDS011;8478;49.208;8.806;2023-04-01T20:19:45;4.17;;;3.87;;
2049;SDS011;8478;49.208;8.806;2023-04-01T20:24:53;3.47;;;3.27;;
2049;SDS011;8478;49.208;8.806;2023-04-01T20:30:38;4.77;;;3.57;;
2049;SDS011;8478;49.208;8.806;2023-04-01T21:09:37;6.33;;;3.10;;
2049;SDS011;8478;49.208;8.806;2023-04-01T21:18:32;3.40;;;3.10;;
2049;SDS011;8478;49.208;8.806;2023-04-01T21:29:35;3.10;;;2.80;;
2049;SDS011;8478;49.208;8.806;2023-04-01T21:35:07;4.23;;;3.27;;
2049;SDS011;8478;49.208;8.806;2023-04-01T21:43:15;4.40;;;3.27;;
2049;SDS011;8478;49.208;8.806;2023-04-01T22:07:25;2.80;;;2.60;;
2049;SDS011;8478;49.208;8.806;2023-04-01T22:12:52;2.37;;;2.27;;
2049;SDS011;8478;49.208;8.806;2023-04-01T22:18:13;3.03;;;2.60;;
2049;SDS011;8478;49.208;8.806;2023-04-01T22:20:44;3.40;;;2.90;;
2049;SDS011;8478;49.208;8.806;2023-04-01T22:23:29;2.80;;;2.60;;
2049;SDS011;8478;49.208;8.806;2023-04-01T22:28:42;3.03;;;2.80;;
2049;SDS011;8478;49.208;8.806;2023-04-01T22:31:18;2.87;;;2.67;;
2049;SDS011;8478;49.208;8.806;2023-04-01T22:36:56;3.07;;;2.83;;
2049;SDS011;8478;49.208;8.806;2023-04-01T22:45:43;2.80;;;2.60;;
2049;SDS011;8478;49.208;8.806;2023-04-01T22:48:16;2.70;;;2.50;;
2049;SDS011;8478;49.208;8.806;2023-04-01T22:50:54;3.00;;;2.80;;
2049;SDS011;8478;49.208;8.806;2023-04-01T22:56:23;2.83;;;2.63;;
2049;SDS011;8478;49.208;8.806;2023-04-01T22:59:06;2.30;;;2.20;;
2049;SDS011;8478;49.208;8.806;2023-04-01T23:02:00;2.70;;;2.57;;
2049;SDS011;8478;49.208;8.806;2023-04-01T23:04:41;2.37;;;2.27;;
2049;SDS011;8478;49.208;8.806;2023-04-01T23:07:19;2.70;;;2.50;;
2049;SDS011;8478;49.208;8.806;2023-04-01T23:09:56;3.00;;;2.80;;
2049;SDS011;8478;49.208;8.806;2023-04-01T23:12:26;2.80;;;2.60;;
2049;SDS011;8478;49.208;8.806;2023-04-01T23:14:58;2.70;;;2.47;;
2049;SDS011;8478;49.208;8.806;2023-04-01T23:26:00;3.10;;;2.90;;
2049;SDS011;8478;49.208;8.806;2023-04-01T23:34:31;3.00;;;2.70;;
2049;SDS011;8478;49.208;8.806;2023-04-01T23:37:01;2.87;;;2.57;;
2049;SDS011;8478;49.208;8.806;2023-04-01T23:39:32;2.60;;;2.50;;
2049;SDS011;8478;49.208;8.806;2023-04-01T23:42:06;2.40;;;2.20;;
2049;SDS011;8478;49.208;8.806;2023-04-01T23:44:38;2.80;;;2.60;;
2049;SDS011;8478;49.208;8.806;2023-04-01T23:47:05;2.50;;;2.40;;
2049;SDS011;8478;49.208;8.806;2023-04-01T23:49:38;2.37;;;2.27;;
2049;SDS011;8478;49.208;8.806;2023-04-01T23:52:10;2.83;;;2.50;;
2049;SDS011;8478;49.208;8.806;2023-04-01T23:57:14;4.77;;;3.10;;
